THY0227 LJLJ-LTFM
Flight info
| Callsign | THY0227 |
|---|---|
| Flight time | 1h 52m |
| Altitude | 35000 |
| Route | LUPIX2E LUPIX DCT VTN DCT NISVA DCT DEDIN L614 GERGI T391 AYTEK |
| Aircraft | B39M/M-SDE2E3FGHIJ2J3J5M1RWXY/LB1D1 |
Departure
| Time | 2026-05-08 15:51 |
|---|---|
| Airport | Ljubljana Jože Pučnik Airport (LJLJ) |
Arrival
| Time | 2026-05-08 17:43 |
|---|---|
| Airport | İstanbul Airport (LTFM) |
| Time | Latitude | Longitude | Altitude | Speed | Heading |
|---|---|---|---|---|---|
| 2026-05-08 15:20 | 46.23025 | 14.45423 | 1270 ft | 0 kts | 36° |
| 2026-05-08 15:41 | 46.23020 | 14.45419 | 1269 ft | 2 kts | 36° |
| 2026-05-08 15:41 | 46.23009 | 14.45407 | 1269 ft | 2 kts | 36° |
| 2026-05-08 15:42 | 46.22996 | 14.45392 | 1268 ft | 2 kts | 53° |
| 2026-05-08 15:42 | 46.22990 | 14.45372 | 1268 ft | 2 kts | 77° |
| 2026-05-08 15:42 | 46.22989 | 14.45349 | 1268 ft | 2 kts | 102° |
| 2026-05-08 15:42 | 46.22993 | 14.45331 | 1268 ft | 0 kts | 122° |
| 2026-05-08 15:43 | 46.22998 | 14.45323 | 1268 ft | 1 kts | 126° |
| 2026-05-08 15:43 | 46.22998 | 14.45321 | 1268 ft | 0 kts | 126° |
| 2026-05-08 15:45 | 46.22998 | 14.45322 | 1268 ft | 0 kts | 126° |
| 2026-05-08 15:45 | 46.22988 | 14.45342 | 1268 ft | 3 kts | 126° |
| 2026-05-08 15:45 | 46.22966 | 14.45383 | 1266 ft | 8 kts | 128° |
| 2026-05-08 15:45 | 46.22933 | 14.45412 | 1264 ft | 4 kts | 193° |
| 2026-05-08 15:46 | 46.22881 | 14.45358 | 1261 ft | 13 kts | 216° |
| 2026-05-08 15:46 | 46.22802 | 14.45377 | 1257 ft | 14 kts | 126° |
| 2026-05-08 15:46 | 46.22736 | 14.45510 | 1255 ft | 19 kts | 126° |
| 2026-05-08 15:46 | 46.22653 | 14.45669 | 1251 ft | 24 kts | 126° |
| 2026-05-08 15:47 | 46.22547 | 14.45877 | 1243 ft | 29 kts | 124° |
| 2026-05-08 15:47 | 46.22424 | 14.46112 | 1236 ft | 29 kts | 126° |
| 2026-05-08 15:47 | 46.22309 | 14.46342 | 1231 ft | 29 kts | 126° |
| 2026-05-08 15:47 | 46.22188 | 14.46579 | 1226 ft | 30 kts | 126° |
| 2026-05-08 15:48 | 46.21938 | 14.47065 | 1213 ft | 31 kts | 124° |
| 2026-05-08 15:48 | 46.21814 | 14.47309 | 1206 ft | 31 kts | 126° |
| 2026-05-08 15:48 | 46.21696 | 14.47540 | 1202 ft | 21 kts | 124° |
| 2026-05-08 15:49 | 46.21623 | 14.47610 | 1200 ft | 10 kts | 208° |
| 2026-05-08 15:49 | 46.21576 | 14.47553 | 1201 ft | 8 kts | 219° |
| 2026-05-08 15:49 | 46.21532 | 14.47494 | 1200 ft | 8 kts | 237° |
| 2026-05-08 15:49 | 46.21527 | 14.47413 | 1200 ft | 8 kts | 290° |
| 2026-05-08 15:50 | 46.21544 | 14.47373 | 1200 ft | 2 kts | 304° |
| 2026-05-08 15:50 | 46.21614 | 14.47234 | 1204 ft | 51 kts | 306° |
| 2026-05-08 15:50 | 46.21991 | 14.46498 | 1219 ft | 128 kts | 306° |
| 2026-05-08 15:50 | 46.22621 | 14.45257 | 1307 ft | 181 kts | 307° |
| 2026-05-08 15:51 | 46.23359 | 14.43916 | 2075 ft | 178 kts | 308° |
| 2026-05-08 15:51 | 46.23947 | 14.42370 | 2565 ft | 190 kts | 279° |
| 2026-05-08 15:51 | 46.23830 | 14.40475 | 3048 ft | 202 kts | 249° |
| 2026-05-08 15:51 | 46.23190 | 14.38755 | 3487 ft | 218 kts | 231° |
| 2026-05-08 15:52 | 46.22034 | 14.37419 | 4028 ft | 229 kts | 199° |
| 2026-05-08 15:52 | 46.20604 | 14.37077 | 4773 ft | 229 kts | 180° |
| 2026-05-08 15:52 | 46.19082 | 14.37092 | 5513 ft | 231 kts | 178° |
| 2026-05-08 15:52 | 46.17549 | 14.37119 | 6259 ft | 232 kts | 179° |
| 2026-05-08 15:53 | 46.16103 | 14.37360 | 6713 ft | 245 kts | 158° |
| 2026-05-08 15:53 | 46.14783 | 14.38750 | 7110 ft | 261 kts | 124° |
| 2026-05-08 15:53 | 46.14102 | 14.40977 | 7574 ft | 275 kts | 103° |
| 2026-05-08 15:53 | 46.13777 | 14.43613 | 8120 ft | 287 kts | 97° |
| 2026-05-08 15:54 | 46.13527 | 14.46227 | 8873 ft | 289 kts | 98° |
| 2026-05-08 15:54 | 46.13255 | 14.48842 | 9573 ft | 293 kts | 99° |
| 2026-05-08 15:54 | 46.12944 | 14.51537 | 10256 ft | 298 kts | 99° |
| 2026-05-08 15:54 | 46.12585 | 14.54458 | 10740 ft | 312 kts | 100° |
| 2026-05-08 15:55 | 46.12195 | 14.57541 | 11178 ft | 327 kts | 100° |
| 2026-05-08 15:55 | 46.11421 | 14.63609 | 11846 ft | 356 kts | 100° |
| 2026-05-08 15:55 | 46.10981 | 14.67054 | 12195 ft | 371 kts | 100° |
| 2026-05-08 15:56 | 46.10549 | 14.70431 | 12505 ft | 385 kts | 100° |
| 2026-05-08 15:56 | 46.10089 | 14.74016 | 12724 ft | 400 kts | 100° |
| 2026-05-08 15:56 | 46.09591 | 14.77894 | 12983 ft | 414 kts | 100° |
| 2026-05-08 15:56 | 46.09108 | 14.81649 | 13558 ft | 417 kts | 100° |
| 2026-05-08 15:57 | 46.08614 | 14.85467 | 14138 ft | 420 kts | 101° |
| 2026-05-08 15:57 | 46.08105 | 14.89391 | 14858 ft | 420 kts | 101° |
| 2026-05-08 15:57 | 46.07629 | 14.93042 | 15507 ft | 420 kts | 101° |
| 2026-05-08 15:57 | 46.07110 | 14.97022 | 16082 ft | 424 kts | 101° |
| 2026-05-08 15:58 | 46.06580 | 15.01069 | 16641 ft | 428 kts | 101° |
| 2026-05-08 15:58 | 46.06047 | 15.05133 | 17177 ft | 432 kts | 101° |
| 2026-05-08 15:58 | 46.05500 | 15.09289 | 17716 ft | 435 kts | 101° |
| 2026-05-08 15:58 | 46.04945 | 15.13500 | 18271 ft | 439 kts | 101° |
| 2026-05-08 15:59 | 46.04391 | 15.17679 | 18768 ft | 443 kts | 101° |
| 2026-05-08 15:59 | 46.03820 | 15.21986 | 19265 ft | 447 kts | 101° |
| 2026-05-08 15:59 | 46.03245 | 15.26303 | 19745 ft | 451 kts | 101° |
| 2026-05-08 15:59 | 46.03051 | 15.27756 | 19927 ft | 451 kts | 102° |
| 2026-05-08 16:00 | 46.02244 | 15.33789 | 20526 ft | 458 kts | 101° |
| 2026-05-08 16:00 | 46.01441 | 15.39761 | 21143 ft | 463 kts | 102° |
| 2026-05-08 16:00 | 46.00835 | 15.44253 | 21628 ft | 466 kts | 102° |
| 2026-05-08 16:00 | 46.00214 | 15.48834 | 22069 ft | 470 kts | 102° |
| 2026-05-08 16:01 | 45.99574 | 15.53545 | 22483 ft | 474 kts | 102° |
| 2026-05-08 16:01 | 45.98944 | 15.58169 | 22957 ft | 476 kts | 102° |
| 2026-05-08 16:01 | 45.98282 | 15.62850 | 23350 ft | 480 kts | 103° |
| 2026-05-08 16:01 | 45.97448 | 15.67672 | 23835 ft | 482 kts | 108° |
| 2026-05-08 16:02 | 45.96338 | 15.72287 | 24274 ft | 483 kts | 114° |
| 2026-05-08 16:02 | 45.94960 | 15.76695 | 24648 ft | 486 kts | 118° |
| 2026-05-08 16:02 | 45.93418 | 15.80943 | 25054 ft | 489 kts | 121° |
| 2026-05-08 16:02 | 45.91761 | 15.85242 | 25478 ft | 490 kts | 121° |
| 2026-05-08 16:03 | 45.90051 | 15.89607 | 25852 ft | 494 kts | 121° |
| 2026-05-08 16:03 | 45.88350 | 15.93935 | 26230 ft | 496 kts | 121° |
| 2026-05-08 16:03 | 45.86657 | 15.98254 | 26811 ft | 494 kts | 122° |
| 2026-05-08 16:03 | 45.84983 | 16.02540 | 27408 ft | 491 kts | 121° |
| 2026-05-08 16:04 | 45.83270 | 16.06943 | 28058 ft | 487 kts | 122° |
| 2026-05-08 16:04 | 45.81513 | 16.11470 | 28794 ft | 481 kts | 122° |
| 2026-05-08 16:04 | 45.79820 | 16.15841 | 29287 ft | 481 kts | 122° |
| 2026-05-08 16:04 | 45.78127 | 16.20201 | 29502 ft | 486 kts | 122° |
| 2026-05-08 16:05 | 45.76413 | 16.24618 | 29661 ft | 492 kts | 122° |
| 2026-05-08 16:05 | 45.74708 | 16.29006 | 30059 ft | 492 kts | 122° |
| 2026-05-08 16:05 | 45.72946 | 16.33534 | 30650 ft | 488 kts | 122° |
| 2026-05-08 16:05 | 45.71269 | 16.37838 | 31169 ft | 486 kts | 122° |
| 2026-05-08 16:06 | 45.69541 | 16.42268 | 31696 ft | 483 kts | 122° |
| 2026-05-08 16:06 | 45.67887 | 16.46500 | 32066 ft | 483 kts | 122° |
| 2026-05-08 16:06 | 45.66254 | 16.50677 | 32670 ft | 478 kts | 122° |
| 2026-05-08 16:06 | 45.64643 | 16.54794 | 33267 ft | 473 kts | 123° |
| 2026-05-08 16:07 | 45.63024 | 16.58924 | 33764 ft | 469 kts | 123° |
| 2026-05-08 16:07 | 45.61438 | 16.62963 | 34178 ft | 467 kts | 123° |
| 2026-05-08 16:07 | 45.59813 | 16.67096 | 34642 ft | 464 kts | 124° |
| 2026-05-08 16:07 | 45.58211 | 16.71160 | 34955 ft | 462 kts | 124° |
| 2026-05-08 16:08 | 45.55019 | 16.79230 | 35080 ft | 468 kts | 124° |
| 2026-05-08 16:08 | 45.53431 | 16.83240 | 35195 ft | 470 kts | 123° |
| 2026-05-08 16:08 | 45.51780 | 16.87397 | 35387 ft | 471 kts | 124° |
| 2026-05-08 16:09 | 45.50169 | 16.91440 | 35660 ft | 470 kts | 123° |
| 2026-05-08 16:09 | 45.49100 | 16.94121 | 35765 ft | 471 kts | 123° |
| 2026-05-08 16:09 | 45.46958 | 16.99494 | 36048 ft | 471 kts | 123° |
| 2026-05-08 16:09 | 45.45339 | 17.03555 | 36351 ft | 468 kts | 123° |
| 2026-05-08 16:10 | 45.43792 | 17.07431 | 36638 ft | 468 kts | 123° |
| 2026-05-08 16:10 | 45.42248 | 17.11292 | 36911 ft | 468 kts | 123° |
| 2026-05-08 16:10 | 45.40638 | 17.15314 | 37166 ft | 468 kts | 123° |
| 2026-05-08 16:10 | 45.39041 | 17.19296 | 37405 ft | 468 kts | 123° |
| 2026-05-08 16:11 | 45.37566 | 17.22971 | 37583 ft | 469 kts | 123° |
| 2026-05-08 16:11 | 45.36067 | 17.26698 | 37751 ft | 470 kts | 123° |
| 2026-05-08 16:11 | 45.34513 | 17.30557 | 37912 ft | 471 kts | 123° |
| 2026-05-08 16:11 | 45.32949 | 17.34432 | 38083 ft | 471 kts | 123° |
| 2026-05-08 16:12 | 45.31369 | 17.38344 | 38253 ft | 472 kts | 123° |
| 2026-05-08 16:12 | 45.29863 | 17.42070 | 38405 ft | 472 kts | 123° |
| 2026-05-08 16:12 | 45.28392 | 17.45703 | 38562 ft | 473 kts | 123° |
| 2026-05-08 16:12 | 45.26841 | 17.49528 | 38717 ft | 473 kts | 122° |
| 2026-05-08 16:13 | 45.25284 | 17.53360 | 38883 ft | 473 kts | 123° |
| 2026-05-08 16:13 | 45.23723 | 17.57199 | 38990 ft | 474 kts | 122° |
| 2026-05-08 16:13 | 45.20671 | 17.64685 | 39017 ft | 475 kts | 122° |
| 2026-05-08 16:14 | 45.17369 | 17.72772 | 39006 ft | 472 kts | 123° |
| 2026-05-08 16:14 | 45.14101 | 17.80751 | 39012 ft | 474 kts | 123° |
| 2026-05-08 16:15 | 45.10783 | 17.88824 | 39022 ft | 474 kts | 123° |
| 2026-05-08 16:15 | 45.07505 | 17.96777 | 39014 ft | 473 kts | 123° |
| 2026-05-08 16:16 | 45.04276 | 18.04592 | 39019 ft | 473 kts | 123° |
| 2026-05-08 16:16 | 45.01165 | 18.12097 | 39015 ft | 473 kts | 123° |
| 2026-05-08 16:17 | 44.98488 | 18.18541 | 39016 ft | 473 kts | 123° |
| 2026-05-08 16:17 | 44.94772 | 18.27466 | 39018 ft | 473 kts | 123° |
| 2026-05-08 16:18 | 44.91545 | 18.35197 | 39015 ft | 472 kts | 123° |
| 2026-05-08 16:18 | 44.88337 | 18.42855 | 39006 ft | 472 kts | 123° |
| 2026-05-08 16:19 | 44.85070 | 18.50628 | 39014 ft | 472 kts | 123° |
| 2026-05-08 16:19 | 44.81948 | 18.58036 | 39003 ft | 472 kts | 123° |
| 2026-05-08 16:20 | 44.78694 | 18.65742 | 39015 ft | 473 kts | 124° |
| 2026-05-08 16:20 | 44.75457 | 18.73390 | 39008 ft | 472 kts | 124° |
| 2026-05-08 16:21 | 44.72242 | 18.80961 | 39013 ft | 473 kts | 124° |
| 2026-05-08 16:21 | 44.69118 | 18.88302 | 39019 ft | 473 kts | 124° |
| 2026-05-08 16:22 | 44.65965 | 18.95691 | 39012 ft | 472 kts | 123° |
| 2026-05-08 16:22 | 44.62818 | 19.03045 | 39018 ft | 471 kts | 123° |
| 2026-05-08 16:23 | 44.59642 | 19.10450 | 39024 ft | 471 kts | 123° |
| 2026-05-08 16:23 | 44.56509 | 19.17891 | 39017 ft | 473 kts | 122° |
| 2026-05-08 16:24 | 44.53460 | 19.25297 | 39015 ft | 473 kts | 122° |
| 2026-05-08 16:24 | 44.50385 | 19.32773 | 39016 ft | 473 kts | 122° |
| 2026-05-08 16:25 | 44.47328 | 19.40166 | 39021 ft | 473 kts | 122° |
| 2026-05-08 16:25 | 44.44256 | 19.47553 | 39020 ft | 474 kts | 122° |
| 2026-05-08 16:26 | 44.41188 | 19.54901 | 39010 ft | 472 kts | 122° |
| 2026-05-08 16:26 | 44.37884 | 19.62788 | 39013 ft | 473 kts | 122° |
| 2026-05-08 16:27 | 44.34784 | 19.70163 | 39015 ft | 472 kts | 123° |
| 2026-05-08 16:27 | 44.31642 | 19.77620 | 39023 ft | 472 kts | 123° |
| 2026-05-08 16:28 | 44.28548 | 19.84936 | 39012 ft | 472 kts | 123° |
| 2026-05-08 16:28 | 44.25396 | 19.92376 | 39018 ft | 472 kts | 123° |
| 2026-05-08 16:29 | 44.22315 | 19.99637 | 39016 ft | 470 kts | 123° |
| 2026-05-08 16:29 | 44.19173 | 20.07023 | 39016 ft | 469 kts | 123° |
| 2026-05-08 16:30 | 44.16184 | 20.14026 | 39011 ft | 471 kts | 122° |
| 2026-05-08 16:30 | 44.13065 | 20.21312 | 39010 ft | 471 kts | 123° |
| 2026-05-08 16:31 | 44.10021 | 20.28407 | 39010 ft | 472 kts | 122° |
| 2026-05-08 16:31 | 44.06876 | 20.35719 | 39021 ft | 472 kts | 122° |
| 2026-05-08 16:32 | 44.03818 | 20.42812 | 39012 ft | 471 kts | 122° |
| 2026-05-08 16:32 | 44.00797 | 20.49806 | 39021 ft | 470 kts | 123° |
| 2026-05-08 16:33 | 43.97696 | 20.56967 | 39010 ft | 471 kts | 123° |
| 2026-05-08 16:33 | 43.94648 | 20.63986 | 39018 ft | 470 kts | 122° |
| 2026-05-08 16:34 | 43.91526 | 20.71164 | 39010 ft | 470 kts | 123° |
| 2026-05-08 16:34 | 43.88351 | 20.78436 | 39020 ft | 471 kts | 123° |
| 2026-05-08 16:35 | 43.85186 | 20.85663 | 39015 ft | 470 kts | 123° |
| 2026-05-08 16:35 | 43.82099 | 20.92695 | 39020 ft | 470 kts | 123° |
| 2026-05-08 16:36 | 43.78932 | 20.99897 | 39024 ft | 471 kts | 123° |
| 2026-05-08 16:36 | 43.75800 | 21.07003 | 39027 ft | 471 kts | 123° |
| 2026-05-08 16:37 | 43.72662 | 21.14105 | 39025 ft | 470 kts | 123° |
| 2026-05-08 16:37 | 43.69584 | 21.21055 | 39003 ft | 471 kts | 123° |
| 2026-05-08 16:38 | 43.66450 | 21.28121 | 39010 ft | 470 kts | 123° |
| 2026-05-08 16:38 | 43.63334 | 21.35134 | 39004 ft | 469 kts | 123° |
| 2026-05-08 16:39 | 43.60204 | 21.42155 | 39004 ft | 470 kts | 123° |
| 2026-05-08 16:39 | 43.56995 | 21.49334 | 39007 ft | 470 kts | 123° |
| 2026-05-08 16:40 | 43.53875 | 21.56287 | 39004 ft | 469 kts | 123° |
| 2026-05-08 16:40 | 43.50641 | 21.63465 | 39012 ft | 470 kts | 123° |
| 2026-05-08 16:41 | 43.47423 | 21.70602 | 39012 ft | 469 kts | 124° |
| 2026-05-08 16:42 | 43.42618 | 21.81234 | 39010 ft | 469 kts | 124° |
| 2026-05-08 16:42 | 43.39471 | 21.88179 | 39006 ft | 469 kts | 124° |
| 2026-05-08 16:43 | 43.36248 | 21.95273 | 39011 ft | 470 kts | 124° |
| 2026-05-08 16:43 | 43.33101 | 22.02181 | 39017 ft | 470 kts | 124° |
| 2026-05-08 16:44 | 43.29853 | 22.09289 | 39006 ft | 469 kts | 124° |
| 2026-05-08 16:44 | 43.26711 | 22.16154 | 39014 ft | 470 kts | 124° |
| 2026-05-08 16:45 | 43.23441 | 22.23282 | 39006 ft | 470 kts | 124° |
| 2026-05-08 16:45 | 43.20245 | 22.30235 | 39014 ft | 471 kts | 124° |
| 2026-05-08 16:46 | 43.16980 | 22.37320 | 39018 ft | 471 kts | 124° |
| 2026-05-08 16:46 | 43.13808 | 22.44197 | 39030 ft | 470 kts | 124° |
| 2026-05-08 16:47 | 43.10520 | 22.51307 | 39021 ft | 470 kts | 124° |
| 2026-05-08 16:47 | 43.07308 | 22.58227 | 39031 ft | 470 kts | 124° |
| 2026-05-08 16:48 | 43.03997 | 22.65337 | 39014 ft | 470 kts | 124° |
| 2026-05-08 16:48 | 43.00712 | 22.72376 | 39005 ft | 470 kts | 124° |
| 2026-05-08 16:49 | 42.97574 | 22.79443 | 39036 ft | 472 kts | 119° |
| 2026-05-08 16:49 | 42.95009 | 22.87022 | 39024 ft | 473 kts | 114° |
| 2026-05-08 16:50 | 42.92800 | 22.94598 | 39033 ft | 474 kts | 113° |
| 2026-05-08 16:50 | 42.90590 | 23.02466 | 39039 ft | 474 kts | 112° |
| 2026-05-08 16:51 | 42.88405 | 23.10168 | 39026 ft | 473 kts | 113° |
| 2026-05-08 16:51 | 42.86129 | 23.18062 | 39028 ft | 475 kts | 113° |
| 2026-05-08 16:52 | 42.83881 | 23.25779 | 39015 ft | 475 kts | 113° |
| 2026-05-08 16:52 | 42.81559 | 23.33698 | 39032 ft | 475 kts | 113° |
| 2026-05-08 16:53 | 42.78098 | 23.45434 | 39028 ft | 474 kts | 113° |
| 2026-05-08 16:53 | 42.75781 | 23.53261 | 39027 ft | 474 kts | 114° |
| 2026-05-08 16:54 | 42.73537 | 23.60817 | 39027 ft | 474 kts | 114° |
| 2026-05-08 16:54 | 42.71219 | 23.68605 | 39034 ft | 475 kts | 114° |
| 2026-05-08 16:55 | 42.68956 | 23.76187 | 39020 ft | 475 kts | 114° |
| 2026-05-08 16:55 | 42.66612 | 23.84011 | 39020 ft | 475 kts | 114° |
| 2026-05-08 16:56 | 42.64348 | 23.91546 | 39024 ft | 476 kts | 114° |
| 2026-05-08 16:56 | 42.62027 | 23.99258 | 39024 ft | 475 kts | 114° |
| 2026-05-08 16:57 | 42.59725 | 24.06876 | 39025 ft | 477 kts | 114° |
| 2026-05-08 16:57 | 42.57285 | 24.14636 | 39024 ft | 477 kts | 116° |
| 2026-05-08 16:58 | 42.54682 | 24.22451 | 39011 ft | 476 kts | 116° |
| 2026-05-08 16:58 | 42.52108 | 24.30077 | 39013 ft | 474 kts | 116° |
| 2026-05-08 16:59 | 42.49578 | 24.37578 | 39012 ft | 476 kts | 116° |
| 2026-05-08 16:59 | 42.47027 | 24.45162 | 39019 ft | 476 kts | 116° |
| 2026-05-08 17:00 | 42.44530 | 24.52588 | 39026 ft | 476 kts | 116° |
| 2026-05-08 17:00 | 42.42033 | 24.60007 | 39009 ft | 475 kts | 116° |
| 2026-05-08 17:01 | 42.39465 | 24.67625 | 38998 ft | 476 kts | 117° |
| 2026-05-08 17:01 | 42.36944 | 24.75085 | 39006 ft | 475 kts | 117° |
| 2026-05-08 17:02 | 42.34329 | 24.82799 | 39005 ft | 476 kts | 117° |
| 2026-05-08 17:02 | 42.31763 | 24.90343 | 39002 ft | 476 kts | 117° |
| 2026-05-08 17:03 | 42.29134 | 24.98056 | 39001 ft | 476 kts | 117° |
| 2026-05-08 17:03 | 42.26582 | 25.05518 | 39000 ft | 476 kts | 117° |
| 2026-05-08 17:04 | 42.23931 | 25.13246 | 39002 ft | 477 kts | 117° |
| 2026-05-08 17:04 | 42.21324 | 25.20828 | 38999 ft | 476 kts | 117° |
| 2026-05-08 17:05 | 42.18705 | 25.28422 | 39005 ft | 476 kts | 117° |
| 2026-05-08 17:05 | 42.16118 | 25.35918 | 39003 ft | 477 kts | 117° |
| 2026-05-08 17:06 | 42.13422 | 25.43705 | 39001 ft | 476 kts | 117° |
| 2026-05-08 17:06 | 42.10843 | 25.51133 | 39007 ft | 478 kts | 117° |
| 2026-05-08 17:07 | 42.08176 | 25.58783 | 38999 ft | 478 kts | 117° |
| 2026-05-08 17:07 | 42.05507 | 25.66425 | 39019 ft | 478 kts | 118° |
| 2026-05-08 17:08 | 42.02837 | 25.74032 | 39017 ft | 478 kts | 118° |
| 2026-05-08 17:08 | 42.00103 | 25.81797 | 39026 ft | 478 kts | 118° |
| 2026-05-08 17:09 | 41.97472 | 25.89260 | 39019 ft | 478 kts | 118° |
| 2026-05-08 17:09 | 41.94809 | 25.96803 | 39021 ft | 479 kts | 118° |
| 2026-05-08 17:10 | 41.92161 | 26.04277 | 39031 ft | 480 kts | 118° |
| 2026-05-08 17:10 | 41.89471 | 26.11859 | 39024 ft | 479 kts | 118° |
| 2026-05-08 17:11 | 41.86837 | 26.19255 | 39028 ft | 479 kts | 118° |
| 2026-05-08 17:11 | 41.84119 | 26.26854 | 39031 ft | 480 kts | 118° |
| 2026-05-08 17:12 | 41.81470 | 26.34256 | 39046 ft | 480 kts | 117° |
| 2026-05-08 17:12 | 41.78982 | 26.42178 | 38813 ft | 477 kts | 113° |
| 2026-05-08 17:13 | 41.77857 | 26.46243 | 38239 ft | 477 kts | 112° |
| 2026-05-08 17:13 | 41.76770 | 26.50354 | 37573 ft | 478 kts | 111° |
| 2026-05-08 17:13 | 41.75714 | 26.54367 | 37034 ft | 476 kts | 112° |
| 2026-05-08 17:13 | 41.74445 | 26.58376 | 36428 ft | 471 kts | 118° |
| 2026-05-08 17:14 | 41.73015 | 26.61904 | 35815 ft | 469 kts | 123° |
| 2026-05-08 17:14 | 41.71411 | 26.65341 | 35247 ft | 466 kts | 126° |
| 2026-05-08 17:14 | 41.69711 | 26.68745 | 34460 ft | 463 kts | 127° |
| 2026-05-08 17:14 | 41.67823 | 26.72260 | 33326 ft | 461 kts | 132° |
| 2026-05-08 17:15 | 41.65665 | 26.75203 | 32100 ft | 459 kts | 143° |
| 2026-05-08 17:15 | 41.63089 | 26.77701 | 31252 ft | 448 kts | 149° |
| 2026-05-08 17:15 | 41.60243 | 26.79975 | 30436 ft | 438 kts | 154° |
| 2026-05-08 17:15 | 41.57464 | 26.81635 | 29424 ft | 432 kts | 164° |
| 2026-05-08 17:16 | 41.55541 | 26.82358 | 28807 ft | 428 kts | 168° |
| 2026-05-08 17:16 | 41.51640 | 26.83435 | 27587 ft | 420 kts | 169° |
| 2026-05-08 17:16 | 41.48859 | 26.84463 | 26618 ft | 419 kts | 160° |
| 2026-05-08 17:16 | 41.46250 | 26.86263 | 25676 ft | 418 kts | 147° |
| 2026-05-08 17:17 | 41.44173 | 26.88523 | 25204 ft | 409 kts | 137° |
| 2026-05-08 17:17 | 41.42377 | 26.91073 | 25088 ft | 408 kts | 132° |
| 2026-05-08 17:17 | 41.40715 | 26.93761 | 25078 ft | 416 kts | 130° |
| 2026-05-08 17:17 | 41.39124 | 26.96797 | 25059 ft | 417 kts | 121° |
| 2026-05-08 17:18 | 41.37987 | 26.99978 | 25063 ft | 417 kts | 111° |
| 2026-05-08 17:18 | 41.37191 | 27.03651 | 25066 ft | 419 kts | 102° |
| 2026-05-08 17:18 | 41.36903 | 27.07327 | 25036 ft | 422 kts | 90° |
| 2026-05-08 17:18 | 41.37157 | 27.11297 | 24672 ft | 425 kts | 79° |
| 2026-05-08 17:19 | 41.37927 | 27.15050 | 24167 ft | 420 kts | 67° |
| 2026-05-08 17:19 | 41.39360 | 27.18375 | 23718 ft | 412 kts | 49° |
| 2026-05-08 17:19 | 41.41544 | 27.21006 | 23118 ft | 406 kts | 31° |
| 2026-05-08 17:19 | 41.44091 | 27.22917 | 22482 ft | 404 kts | 25° |
| 2026-05-08 17:20 | 41.49082 | 27.26379 | 21149 ft | 404 kts | 28° |
| 2026-05-08 17:20 | 41.51341 | 27.28191 | 20616 ft | 401 kts | 31° |
| 2026-05-08 17:20 | 41.53278 | 27.29865 | 20314 ft | 395 kts | 32° |
| 2026-05-08 17:21 | 41.55447 | 27.31811 | 20053 ft | 385 kts | 34° |
| 2026-05-08 17:21 | 41.57451 | 27.34037 | 19818 ft | 375 kts | 45° |
| 2026-05-08 17:21 | 41.59098 | 27.36603 | 19697 ft | 363 kts | 52° |
| 2026-05-08 17:21 | 41.60577 | 27.39347 | 19412 ft | 352 kts | 55° |
| 2026-05-08 17:22 | 41.61929 | 27.42032 | 18850 ft | 349 kts | 56° |
| 2026-05-08 17:22 | 41.63240 | 27.44731 | 18184 ft | 348 kts | 61° |
| 2026-05-08 17:22 | 41.64066 | 27.47710 | 17540 ft | 344 kts | 84° |
| 2026-05-08 17:22 | 41.64042 | 27.50904 | 16866 ft | 338 kts | 98° |
| 2026-05-08 17:23 | 41.63730 | 27.53949 | 16215 ft | 334 kts | 100° |
| 2026-05-08 17:23 | 41.63407 | 27.56988 | 15554 ft | 331 kts | 100° |
| 2026-05-08 17:23 | 41.63128 | 27.59997 | 14895 ft | 328 kts | 99° |
| 2026-05-08 17:23 | 41.62885 | 27.63012 | 14237 ft | 326 kts | 98° |
| 2026-05-08 17:24 | 41.62669 | 27.65915 | 13592 ft | 326 kts | 99° |
| 2026-05-08 17:24 | 41.62468 | 27.68758 | 12966 ft | 324 kts | 99° |
| 2026-05-08 17:24 | 41.62283 | 27.71466 | 12447 ft | 320 kts | 98° |
| 2026-05-08 17:24 | 41.62100 | 27.74115 | 12009 ft | 320 kts | 99° |
| 2026-05-08 17:25 | 41.61912 | 27.76819 | 11558 ft | 319 kts | 99° |
| 2026-05-08 17:25 | 41.61722 | 27.79518 | 11109 ft | 319 kts | 99° |
| 2026-05-08 17:25 | 41.61527 | 27.82317 | 10619 ft | 316 kts | 99° |
| 2026-05-08 17:25 | 41.61339 | 27.85037 | 10172 ft | 307 kts | 99° |
| 2026-05-08 17:26 | 41.61159 | 27.87694 | 9821 ft | 296 kts | 99° |
| 2026-05-08 17:26 | 41.60990 | 27.90109 | 9493 ft | 288 kts | 99° |
| 2026-05-08 17:26 | 41.60822 | 27.92461 | 9180 ft | 288 kts | 99° |
| 2026-05-08 17:26 | 41.60664 | 27.94728 | 8859 ft | 286 kts | 99° |
| 2026-05-08 17:27 | 41.60484 | 27.97279 | 8499 ft | 284 kts | 99° |
| 2026-05-08 17:27 | 41.60307 | 27.99700 | 8179 ft | 283 kts | 99° |
| 2026-05-08 17:27 | 41.60121 | 28.02235 | 7936 ft | 281 kts | 98° |
| 2026-05-08 17:27 | 41.59944 | 28.04779 | 7691 ft | 279 kts | 98° |
| 2026-05-08 17:28 | 41.59776 | 28.07305 | 7453 ft | 279 kts | 98° |
| 2026-05-08 17:28 | 41.59599 | 28.09821 | 7207 ft | 278 kts | 98° |
| 2026-05-08 17:28 | 41.59445 | 28.12175 | 6970 ft | 272 kts | 98° |
| 2026-05-08 17:28 | 41.59278 | 28.14599 | 6732 ft | 267 kts | 98° |
| 2026-05-08 17:29 | 41.59098 | 28.17048 | 6489 ft | 262 kts | 99° |
| 2026-05-08 17:29 | 41.58915 | 28.19470 | 6233 ft | 257 kts | 99° |
| 2026-05-08 17:29 | 41.58742 | 28.21809 | 5989 ft | 253 kts | 98° |
| 2026-05-08 17:29 | 41.58572 | 28.24149 | 5806 ft | 246 kts | 99° |
| 2026-05-08 17:30 | 41.58409 | 28.26368 | 5688 ft | 242 kts | 99° |
| 2026-05-08 17:30 | 41.58239 | 28.28645 | 5567 ft | 243 kts | 99° |
| 2026-05-08 17:30 | 41.58069 | 28.30888 | 5445 ft | 244 kts | 99° |
| 2026-05-08 17:30 | 41.57898 | 28.33162 | 5320 ft | 245 kts | 99° |
| 2026-05-08 17:31 | 41.57722 | 28.35459 | 5192 ft | 244 kts | 99° |
| 2026-05-08 17:31 | 41.57547 | 28.37737 | 5117 ft | 244 kts | 99° |
| 2026-05-08 17:31 | 41.57373 | 28.40000 | 5116 ft | 245 kts | 99° |
| 2026-05-08 17:31 | 41.57258 | 28.41512 | 5121 ft | 245 kts | 99° |
| 2026-05-08 17:32 | 41.57027 | 28.44602 | 5039 ft | 245 kts | 98° |
| 2026-05-08 17:32 | 41.57025 | 28.46908 | 4999 ft | 256 kts | 83° |
| 2026-05-08 17:32 | 41.57731 | 28.49098 | 4969 ft | 255 kts | 48° |
| 2026-05-08 17:32 | 41.59141 | 28.50541 | 4991 ft | 255 kts | 30° |
| 2026-05-08 17:33 | 41.60730 | 28.51706 | 4973 ft | 256 kts | 28° |
| 2026-05-08 17:33 | 41.62276 | 28.52857 | 4973 ft | 256 kts | 30° |
| 2026-05-08 17:33 | 41.63782 | 28.54187 | 4968 ft | 255 kts | 42° |
| 2026-05-08 17:33 | 41.64802 | 28.56056 | 4966 ft | 252 kts | 75° |
| 2026-05-08 17:34 | 41.64928 | 28.58294 | 4982 ft | 245 kts | 102° |
| 2026-05-08 17:34 | 41.64582 | 28.60531 | 4978 ft | 245 kts | 106° |
| 2026-05-08 17:34 | 41.64206 | 28.62742 | 4973 ft | 247 kts | 105° |
| 2026-05-08 17:34 | 41.63863 | 28.64934 | 4972 ft | 246 kts | 104° |
| 2026-05-08 17:35 | 41.63508 | 28.67123 | 4971 ft | 244 kts | 110° |
| 2026-05-08 17:35 | 41.62851 | 28.69002 | 4962 ft | 232 kts | 135° |
| 2026-05-08 17:35 | 41.61642 | 28.70270 | 4983 ft | 225 kts | 154° |
| 2026-05-08 17:35 | 41.60238 | 28.71267 | 4970 ft | 225 kts | 156° |
| 2026-05-08 17:36 | 41.58855 | 28.72056 | 4968 ft | 222 kts | 169° |
| 2026-05-08 17:36 | 41.57379 | 28.72300 | 4978 ft | 213 kts | 182° |
| 2026-05-08 17:36 | 41.56020 | 28.72256 | 4986 ft | 196 kts | 184° |
| 2026-05-08 17:36 | 41.54717 | 28.72240 | 4966 ft | 179 kts | 182° |
| 2026-05-08 17:37 | 41.53515 | 28.72258 | 4959 ft | 174 kts | 182° |
| 2026-05-08 17:37 | 41.52285 | 28.72278 | 4811 ft | 178 kts | 182° |
| 2026-05-08 17:37 | 41.51056 | 28.72300 | 4512 ft | 178 kts | 182° |
| 2026-05-08 17:37 | 41.49832 | 28.72325 | 4252 ft | 176 kts | 182° |
| 2026-05-08 17:38 | 41.48644 | 28.72347 | 4004 ft | 174 kts | 182° |
| 2026-05-08 17:38 | 41.47425 | 28.72371 | 3752 ft | 172 kts | 183° |
| 2026-05-08 17:38 | 41.46233 | 28.72394 | 3519 ft | 170 kts | 183° |
| 2026-05-08 17:38 | 41.45075 | 28.72416 | 3283 ft | 168 kts | 182° |
| 2026-05-08 17:39 | 41.43922 | 28.72438 | 3047 ft | 164 kts | 182° |
| 2026-05-08 17:39 | 41.42810 | 28.72462 | 2829 ft | 150 kts | 183° |
| 2026-05-08 17:39 | 41.41816 | 28.72482 | 2639 ft | 147 kts | 182° |
| 2026-05-08 17:39 | 41.40807 | 28.72501 | 2448 ft | 144 kts | 184° |
| 2026-05-08 17:40 | 41.39793 | 28.72518 | 2248 ft | 146 kts | 184° |
| 2026-05-08 17:40 | 41.38761 | 28.72542 | 2046 ft | 145 kts | 184° |
| 2026-05-08 17:40 | 41.37749 | 28.72559 | 1855 ft | 147 kts | 183° |
| 2026-05-08 17:40 | 41.36732 | 28.72584 | 1660 ft | 144 kts | 184° |
| 2026-05-08 17:41 | 41.35737 | 28.72599 | 1474 ft | 144 kts | 183° |
| 2026-05-08 17:41 | 41.34781 | 28.72608 | 1305 ft | 145 kts | 181° |
| 2026-05-08 17:41 | 41.33774 | 28.72625 | 1103 ft | 149 kts | 181° |
| 2026-05-08 17:41 | 41.32782 | 28.72651 | 906 ft | 145 kts | 180° |
| 2026-05-08 17:42 | 41.31849 | 28.72679 | 730 ft | 151 kts | 180° |
| 2026-05-08 17:42 | 41.30837 | 28.72699 | 543 ft | 146 kts | 181° |
| 2026-05-08 17:42 | 41.29837 | 28.72703 | 380 ft | 150 kts | 179° |
| 2026-05-08 17:42 | 41.28937 | 28.72721 | 333 ft | 116 kts | 179° |
| 2026-05-08 17:43 | 41.28337 | 28.72732 | 333 ft | 71 kts | 179° |
| 2026-05-08 17:43 | 41.27953 | 28.72749 | 333 ft | 50 kts | 171° |
| 2026-05-08 17:43 | 41.27722 | 28.72872 | 333 ft | 12 kts | 148° |
| 2026-05-08 17:43 | 41.27650 | 28.72932 | 333 ft | 11 kts | 145° |
| 2026-05-08 17:44 | 41.27584 | 28.72967 | 333 ft | 10 kts | 166° |
| 2026-05-08 17:44 | 41.27499 | 28.72976 | 333 ft | 15 kts | 179° |
| 2026-05-08 17:44 | 41.27380 | 28.72979 | 333 ft | 20 kts | 179° |
| 2026-05-08 17:44 | 41.27251 | 28.72983 | 333 ft | 19 kts | 179° |
| 2026-05-08 17:45 | 41.27114 | 28.72986 | 333 ft | 22 kts | 179° |
| 2026-05-08 17:45 | 41.27032 | 28.73032 | 333 ft | 11 kts | 103° |
| 2026-05-08 17:45 | 41.27032 | 28.73154 | 333 ft | 19 kts | 89° |
| 2026-05-08 17:45 | 41.27035 | 28.73362 | 333 ft | 30 kts | 90° |
| 2026-05-08 17:46 | 41.27037 | 28.73624 | 333 ft | 29 kts | 88° |
| 2026-05-08 17:46 | 41.27038 | 28.73812 | 333 ft | 18 kts | 100° |
| 2026-05-08 17:46 | 41.26949 | 28.73869 | 333 ft | 19 kts | 180° |
| 2026-05-08 17:46 | 41.26819 | 28.73872 | 333 ft | 7 kts | 178° |
| 2026-05-08 17:47 | 41.26792 | 28.73873 | 333 ft | 2 kts | 179° |
| 2026-05-08 17:47 | 41.26785 | 28.73873 | 333 ft | 0 kts | 179° |
| 2026-05-08 17:48 | 41.26765 | 28.73873 | 333 ft | 7 kts | 180° |
| 2026-05-08 17:48 | 41.26694 | 28.73875 | 333 ft | 12 kts | 178° |
| 2026-05-08 17:48 | 41.26653 | 28.73843 | 333 ft | 5 kts | 262° |
| 2026-05-08 17:49 | 41.26653 | 28.73800 | 333 ft | 4 kts | 271° |
| 2026-05-08 17:49 | 41.26653 | 28.73764 | 333 ft | 3 kts | 270° |
| 2026-05-08 17:49 | 41.26653 | 28.73746 | 333 ft | 0 kts | 270° |